createdAt,value
2018-05-05T00:01:06.836Z,95.41
2018-05-05T00:06:02.639Z,95.61
2018-05-05T00:10:58.458Z,95.41
2018-05-05T00:15:59.203Z,95.56
2018-05-05T00:20:55.171Z,95.08
2018-05-05T00:25:51.163Z,95.84
2018-05-05T00:30:50.835Z,95.84
2018-05-05T00:35:45.703Z,95.56
2018-05-05T00:40:41.413Z,96.41
2018-05-05T00:45:37.108Z,96.51
2018-05-05T00:50:37.710Z,96.89
2018-05-05T00:55:32.402Z,97.41
2018-05-05T01:00:29.288Z,97.79
2018-05-05T01:05:25.664Z,98.08
2018-05-05T01:10:21.603Z,98.55
2018-05-05T01:15:17.326Z,97.99
2018-05-05T01:20:13.150Z,98.55
2018-05-05T01:25:08.809Z,98.27
2018-05-05T01:30:06.669Z,98.18
2018-05-05T01:35:03.316Z,97.79
2018-05-05T01:39:58.649Z,96.84
2018-05-05T01:44:54.390Z,96.65
2018-05-05T01:49:49.793Z,96.84
2018-05-05T01:54:45.165Z,96.94
2018-05-05T01:59:46.259Z,97.31
2018-05-05T02:04:41.293Z,97.84
2018-05-05T02:09:40.798Z,98.88
2018-05-05T02:14:35.620Z,98.50
2018-05-05T02:19:35.636Z,99.46
2018-05-05T02:24:30.687Z,99.84
2018-05-05T02:29:26.354Z,99.65
2018-05-05T02:34:21.998Z,99.99
2018-05-05T02:39:18.774Z,99.99
2018-05-05T02:44:14.355Z,99.99
2018-05-05T02:49:09.956Z,99.99
2018-05-05T02:54:05.677Z,99.99
2018-05-05T02:59:01.770Z,99.99
2018-05-05T03:03:57.551Z,99.99
2018-05-05T03:08:53.204Z,99.99
2018-05-05T03:13:49.028Z,99.99
2018-05-05T03:18:44.637Z,99.99
2018-05-05T03:23:40.295Z,99.99
2018-05-05T03:28:40.226Z,99.99
2018-05-05T03:33:35.056Z,99.99
2018-05-05T03:38:30.976Z,99.99
2018-05-05T03:43:26.690Z,99.99
2018-05-05T03:48:23.340Z,99.99
2018-05-05T03:53:18.729Z,99.99
2018-05-05T03:58:15.426Z,99.99
2018-05-05T04:03:15.676Z,99.99
2018-05-05T04:08:10.291Z,99.99
2018-05-05T04:13:09.869Z,99.99
2018-05-05T04:18:05.695Z,99.99
2018-05-05T04:23:05.258Z,99.99
2018-05-05T04:27:59.964Z,99.99
2018-05-05T04:32:57.224Z,99.99
2018-05-05T04:37:56.513Z,99.99
2018-05-05T04:42:55.695Z,99.99
2018-05-05T04:47:55.998Z,99.99
2018-05-05T04:52:50.842Z,99.99
2018-05-05T04:57:46.553Z,99.99
2018-05-05T05:02:42.563Z,99.99
2018-05-05T05:07:38.912Z,99.99
2018-05-05T05:12:35.567Z,99.99
2018-05-05T05:17:36.189Z,99.99
2018-05-05T05:22:34.934Z,99.27
2018-05-05T05:27:29.961Z,96.80
2018-05-05T05:32:25.563Z,95.17
2018-05-05T05:37:21.360Z,95.36
2018-05-05T05:42:21.053Z,93.32
2018-05-05T05:47:21.239Z,92.36
2018-05-05T05:52:15.888Z,91.41
2018-05-05T05:57:11.833Z,89.89
2018-05-05T06:02:07.888Z,89.45
2018-05-05T06:07:03.813Z,88.59
2018-05-05T06:12:01.014Z,87.64
2018-05-05T06:16:56.505Z,86.92
2018-05-05T06:21:53.074Z,86.06
2018-05-05T06:26:52.904Z,85.49
2018-05-05T06:31:51.961Z,83.67
2018-05-05T06:36:47.657Z,83.53
2018-05-05T06:41:43.556Z,83.43
2018-05-05T06:46:44.460Z,80.09
2018-05-05T06:51:39.838Z,78.41
2018-05-05T06:56:36.607Z,78.51
2018-05-05T07:01:36.150Z,76.25
2018-05-05T07:06:35.780Z,75.39
2018-05-05T07:11:30.933Z,72.56
2018-05-05T07:16:27.855Z,71.70
2018-05-05T07:21:23.333Z,71.13
2018-05-05T07:26:19.550Z,73.71
2018-05-05T07:31:20.567Z,70.87
2018-05-05T07:36:15.912Z,70.68
2018-05-05T07:41:13.028Z,67.66
2018-05-05T07:46:15.281Z,63.64
2018-05-05T07:51:16.538Z,60.57
2018-05-05T07:56:13.214Z,58.30
2018-05-05T08:01:14.293Z,55.38
2018-05-05T08:06:11.313Z,54.25
2018-05-05T08:11:07.964Z,50.25
2018-05-05T08:16:06.062Z,51.67
2018-05-05T08:21:01.455Z,49.67
2018-05-05T08:25:57.847Z,48.16
2018-05-05T08:30:53.926Z,47.89
2018-05-05T08:35:51.651Z,44.32
2018-05-05T08:40:51.747Z,44.93
2018-05-05T08:45:46.440Z,42.41
2018-05-05T08:50:40.346Z,45.08
2018-05-05T08:55:36.354Z,43.60
2018-05-05T09:00:32.259Z,45.25
2018-05-05T09:05:27.307Z,43.16
2018-05-05T09:10:26.721Z,44.48
2018-05-05T09:15:22.251Z,43.59
2018-05-05T09:20:19.630Z,39.83
2018-05-05T09:25:19.014Z,34.80
2018-05-05T09:30:15.508Z,38.04
2018-05-05T09:35:15.213Z,40.12
2018-05-05T09:40:15.203Z,40.11
2018-05-05T09:45:10.810Z,39.47
2018-05-05T09:50:07.660Z,42.77
2018-05-05T09:55:07.549Z,39.28
2018-05-05T10:00:03.145Z,39.95
2018-05-05T10:05:03.814Z,41.18
2018-05-05T10:10:03.218Z,40.80
2018-05-05T10:14:58.427Z,39.59
2018-05-05T10:19:55.243Z,36.98
2018-05-05T10:24:57.229Z,36.71
2018-05-05T10:29:52.931Z,34.79
2018-05-05T10:34:49.507Z,38.74
2018-05-05T10:39:46.609Z,37.75
2018-05-05T10:44:44.070Z,38.33
2018-05-05T10:49:41.433Z,37.67
2018-05-05T10:54:37.844Z,36.30
2018-05-05T10:59:34.161Z,34.91
2018-05-05T11:04:30.871Z,34.83
2018-05-05T11:09:28.384Z,36.40
2018-05-05T11:14:24.381Z,34.36
2018-05-05T11:19:21.356Z,35.68
2018-05-05T11:24:21.523Z,34.38
2018-05-05T11:29:16.634Z,34.91
2018-05-05T11:34:13.096Z,34.07
2018-05-05T11:39:09.938Z,33.65
2018-05-05T11:44:06.262Z,34.45
2018-05-05T11:49:02.586Z,33.31
2018-05-05T11:53:59.519Z,34.69
2018-05-05T11:58:55.641Z,34.04
2018-05-05T12:03:52.149Z,35.66
2018-05-05T12:08:52.364Z,35.88
2018-05-05T12:13:48.244Z,34.86
2018-05-05T12:18:44.139Z,33.57
2018-05-05T12:23:43.965Z,32.82
2018-05-05T12:28:38.895Z,33.65
2018-05-05T12:33:35.548Z,34.04
2018-05-05T12:38:35.290Z,39.74
2018-05-05T12:43:25.440Z,39.79
2018-05-05T12:48:22.261Z,40.12
2018-05-05T12:53:16.815Z,37.88
2018-05-05T12:58:15.865Z,35.81
2018-05-05T13:03:17.127Z,34.79
2018-05-05T13:08:12.360Z,36.79
2018-05-05T13:13:11.939Z,34.70
2018-05-05T13:18:11.168Z,32.06
2018-05-05T13:23:07.708Z,31.12
2018-05-05T13:28:07.408Z,33.18
2018-05-05T13:33:03.018Z,35.05
2018-05-05T13:38:01.153Z,38.21
2018-05-05T13:42:55.859Z,38.08
2018-05-05T13:47:50.276Z,38.85
2018-05-05T13:52:45.328Z,36.81
2018-05-05T13:57:40.804Z,38.06
2018-05-05T14:02:36.314Z,40.09
2018-05-05T14:07:36.910Z,40.09
2018-05-05T14:12:36.783Z,41.24
2018-05-05T14:17:36.286Z,40.76
2018-05-05T14:22:36.230Z,42.40
2018-05-05T14:27:31.099Z,42.59
2018-05-05T14:32:26.927Z,43.65
2018-05-05T14:37:22.765Z,44.81
2018-05-05T14:42:18.501Z,43.82
2018-05-05T14:47:14.158Z,44.90
2018-05-05T14:52:11.052Z,43.82
2018-05-05T14:57:07.622Z,44.69
2018-05-05T15:02:03.215Z,45.77
2018-05-05T15:06:59.195Z,45.68
2018-05-05T15:11:55.262Z,44.04
2018-05-05T15:16:55.021Z,44.81
2018-05-05T15:21:49.992Z,44.81
2018-05-05T15:26:45.742Z,44.71
2018-05-05T15:31:45.815Z,43.75
2018-05-05T15:36:40.793Z,43.73
2018-05-05T15:41:36.650Z,44.02
2018-05-05T15:46:32.567Z,44.21
2018-05-05T15:51:32.415Z,42.19
2018-05-05T15:56:28.587Z,41.89
2018-05-05T16:01:25.336Z,43.34
2018-05-05T16:06:24.434Z,41.71
2018-05-05T16:11:19.583Z,40.64
2018-05-05T16:16:16.544Z,41.14
2018-05-05T16:21:11.943Z,40.66
2018-05-05T16:26:09.183Z,40.28
2018-05-05T16:31:05.347Z,40.84
2018-05-05T16:36:05.090Z,39.59
2018-05-05T16:40:59.922Z,39.86
2018-05-05T16:45:55.807Z,39.78
2018-05-05T16:50:51.749Z,40.43
2018-05-05T16:55:47.576Z,40.14
2018-05-05T17:00:48.122Z,39.37
2018-05-05T17:05:43.154Z,39.37
2018-05-05T17:10:39.557Z,40.24
2018-05-05T17:15:39.693Z,39.56
2018-05-05T17:20:34.630Z,40.81
2018-05-05T17:25:30.706Z,39.45
2018-05-05T17:30:26.447Z,39.83
2018-05-05T17:35:23.458Z,40.12
2018-05-05T17:40:20.033Z,40.12
2018-05-05T17:45:20.714Z,40.80
2018-05-05T17:50:15.479Z,41.86
2018-05-05T17:55:11.136Z,41.35
2018-05-05T18:00:06.990Z,41.74
2018-05-05T18:05:03.806Z,42.12
2018-05-05T18:10:00.353Z,41.72
2018-05-05T18:14:57.053Z,42.10
2018-05-05T18:19:57.218Z,42.10
2018-05-05T18:24:51.962Z,42.77
2018-05-05T18:29:52.504Z,43.23
2018-05-05T18:34:47.344Z,42.56
2018-05-05T18:39:43.864Z,43.04
2018-05-05T18:44:39.835Z,43.60
2018-05-05T18:49:35.656Z,43.98
2018-05-05T18:54:32.431Z,43.88
2018-05-05T18:59:32.723Z,44.92
2018-05-05T19:04:27.463Z,44.54
2018-05-05T19:09:28.162Z,45.40
2018-05-05T19:14:22.688Z,45.59
2018-05-05T19:19:18.553Z,46.05
2018-05-05T19:24:15.427Z,47.39
2018-05-05T19:29:10.792Z,48.83
2018-05-05T19:34:06.589Z,49.12
2018-05-05T19:39:02.784Z,49.57
2018-05-05T19:44:03.480Z,50.05
2018-05-05T19:48:58.243Z,50.41
2018-05-05T19:53:54.015Z,50.89
2018-05-05T19:58:49.951Z,50.70
2018-05-05T20:03:49.962Z,51.56
2018-05-05T20:08:44.689Z,51.25
2018-05-05T20:13:40.236Z,52.50
2018-05-05T20:18:36.358Z,52.50
2018-05-05T20:23:33.096Z,53.83
2018-05-05T20:28:33.514Z,53.74
2018-05-05T20:33:28.629Z,53.62
2018-05-05T20:38:24.655Z,54.96
2018-05-05T20:43:21.333Z,54.67
2018-05-05T20:48:16.802Z,54.67
2018-05-05T20:53:12.214Z,54.67
2018-05-05T20:58:13.400Z,54.74
2018-05-05T21:03:08.084Z,54.26
2018-05-05T21:08:08.607Z,55.12
2018-05-05T21:13:03.492Z,57.32
2018-05-05T21:17:59.251Z,55.60
2018-05-05T21:22:55.178Z,55.47
2018-05-05T21:27:50.863Z,56.37
2018-05-05T21:32:46.522Z,57.39
2018-05-05T21:37:42.368Z,57.10
2018-05-05T21:42:42.631Z,57.10
2018-05-05T21:47:37.414Z,57.87
2018-05-05T21:52:33.050Z,57.58
2018-05-05T21:57:32.586Z,57.77
2018-05-05T22:02:27.588Z,58.44
2018-05-05T22:07:27.417Z,58.03
2018-05-05T22:12:22.555Z,58.61
2018-05-05T22:17:18.323Z,59.18
2018-05-05T22:22:14.450Z,59.27
2018-05-05T22:27:12.053Z,60.52
2018-05-05T22:32:11.530Z,59.75
2018-05-05T22:37:06.671Z,61.19
2018-05-05T22:42:02.205Z,60.33
2018-05-05T22:46:58.469Z,60.33
2018-05-05T22:51:54.349Z,60.71
2018-05-05T22:56:50.316Z,62.14
2018-05-05T23:01:46.363Z,62.68
2018-05-05T23:06:47.400Z,61.16
2018-05-05T23:11:41.995Z,61.25
2018-05-05T23:16:37.623Z,61.06
2018-05-05T23:21:37.527Z,61.25
2018-05-05T23:26:36.287Z,61.16
2018-05-05T23:31:31.967Z,60.68
2018-05-05T23:36:27.455Z,62.21
2018-05-05T23:41:23.006Z,61.82
2018-05-05T23:46:18.744Z,63.23
2018-05-05T23:51:18.142Z,61.72
2018-05-05T23:56:17.107Z,61.35
